Time;durP1;ratioP1;P1;durP2;ratioP2;P2;SDS_P1;SDS_P2;PMS_P1;PMS_P2;Temp;Humidity;BMP_temperature;BMP_pressure;BME280_temperature;BME280_humidity;BME280_pressure;Samples;Min_cycle;Max_cycle;Signal;HPM_P1;HPM_P2
2022/03/08 00:00:22;;;;;;;19.55;7.45;;;-2.10;99.90;;;;;;5039128;28;20081;-95
2022/03/08 00:02:51;;;;;;;13.77;7.70;;;-1.20;99.90;;;;;;5039061;28;20051;-95
2022/03/08 00:05:18;;;;;;;15.85;7.03;;;-1.50;99.90;;;;;;5039227;28;20013;-96
2022/03/08 00:07:46;;;;;;;15.82;7.68;;;-2.00;99.90;;;;;;5039036;28;20026;-96
2022/03/08 00:10:13;;;;;;;14.82;7.25;;;-1.80;99.90;;;;;;5039368;28;20024;-96
2022/03/08 00:12:39;;;;;;;12.45;6.22;;;-1.10;99.90;;;;;;5039339;28;20052;-96
2022/03/08 00:15:08;;;;;;;10.93;6.22;;;-2.30;99.90;;;;;;5039386;28;20018;-96
2022/03/08 00:17:34;;;;;;;15.45;6.63;;;-2.20;99.90;;;;;;5039229;28;20034;-96
2022/03/08 00:20:00;;;;;;;14.85;6.35;;;-2.20;99.90;;;;;;5039284;28;20032;-96
2022/03/08 00:22:25;;;;;;;12.68;6.72;;;-1.50;99.90;;;;;;5039256;28;20014;-96
2022/03/08 00:24:53;;;;;;;13.95;6.75;;;-1.60;99.90;;;;;;5039213;28;20018;-95
2022/03/08 00:27:19;;;;;;;15.60;6.95;;;-2.10;99.90;;;;;;5039151;28;20045;-95
2022/03/08 00:29:45;;;;;;;13.90;6.75;;;-1.80;99.90;;;;;;5038901;28;20033;-95
2022/03/08 00:32:10;;;;;;;13.77;7.40;;;-0.50;99.90;;;;;;5038883;28;20017;-96
2022/03/08 00:34:36;;;;;;;15.02;7.00;;;-2.10;99.90;;;;;;5038870;28;20025;-95
2022/03/08 00:37:03;;;;;;;14.35;7.07;;;-0.90;99.90;;;;;;5038925;28;20014;-96
2022/03/08 00:39:28;;;;;;;11.52;6.40;;;-1.60;99.90;;;;;;5039097;28;20022;-95
2022/03/08 00:41:54;;;;;;;13.07;6.45;;;-1.20;99.90;;;;;;5023912;28;20029;-95
2022/03/08 00:44:20;;;;;;;15.18;7.40;;;-1.60;99.90;;;;;;5025969;28;20093;-96
2022/03/08 00:46:46;;;;;;;14.32;6.65;;;-2.00;99.90;;;;;;5025866;28;20022;-96
2022/03/08 00:49:12;;;;;;;14.25;7.68;;;-0.50;99.90;;;;;;5025810;28;20017;-95
2022/03/08 00:51:38;;;;;;;14.88;8.05;;;-1.70;99.90;;;;;;5025786;28;20026;-95
2022/03/08 00:54:05;;;;;;;11.43;7.07;;;-1.80;99.90;;;;;;5025959;28;20025;-95
2022/03/08 00:56:30;;;;;;;14.05;6.53;;;-1.90;99.90;;;;;;5025956;28;20045;-96
2022/03/08 00:58:56;;;;;;;15.55;8.05;;;-2.60;99.90;;;;;;5025728;28;20021;-96
2022/03/08 01:01:22;;;;;;;13.90;7.63;;;-1.10;99.90;;;;;;5025770;28;20017;-95
2022/03/08 01:03:48;;;;;;;13.20;7.03;;;-2.00;99.90;;;;;;5025896;28;20017;-95
2022/03/08 01:06:17;;;;;;;12.63;6.97;;;-1.70;99.90;;;;;;5042664;28;20017;-96
2022/03/08 01:08:45;;;;;;;14.57;7.57;;;-2.20;99.90;;;;;;5042616;28;20025;-95
2022/03/08 01:11:11;;;;;;;15.52;7.45;;;-2.30;99.90;;;;;;5025727;28;20056;-95
2022/03/08 01:13:37;;;;;;;14.50;6.93;;;-2.20;99.90;;;;;;5025702;28;20018;-95
2022/03/08 01:16:03;;;;;;;18.50;8.48;;;-1.00;99.90;;;;;;5025737;28;20025;-95
2022/03/08 01:18:29;;;;;;;12.85;7.10;;;-2.30;99.90;;;;;;5028493;28;20032;-96
2022/03/08 01:20:58;;;;;;;15.57;7.82;;;-2.40;99.90;;;;;;5029493;28;20049;-95
2022/03/08 01:23:24;;;;;;;17.60;8.20;;;-2.40;99.90;;;;;;5029414;28;20025;-96
2022/03/08 01:25:49;;;;;;;17.42;8.13;;;-2.40;99.90;;;;;;5029438;28;20017;-96
2022/03/08 01:28:15;;;;;;;16.40;7.85;;;-2.20;99.90;;;;;;5029307;28;20096;-95
2022/03/08 01:30:43;;;;;;;16.50;8.32;;;-2.50;99.90;;;;;;5029343;28;20014;-96
2022/03/08 01:33:09;;;;;;;14.93;8.90;;;-2.60;99.90;;;;;;5029124;28;20021;-96
2022/03/08 01:35:35;;;;;;;19.48;10.15;;;-2.60;99.90;;;;;;5029277;28;20017;-96
2022/03/08 01:38:00;;;;;;;24.98;10.05;;;-1.90;99.90;;;;;;5012751;28;20033;-96
2022/03/08 01:40:27;;;;;;;15.75;8.68;;;-2.90;99.90;;;;;;5029036;28;20026;-95
2022/03/08 01:42:54;;;;;;;16.85;8.27;;;-2.70;99.90;;;;;;5028811;28;20065;-95
2022/03/08 01:45:24;;;;;;;19.80;10.07;;;-2.90;99.90;;;;;;5045201;28;20018;-96
2022/03/08 01:47:52;;;;;;;18.98;9.48;;;-2.70;99.90;;;;;;5028913;28;20021;-95
2022/03/08 01:50:18;;;;;;;16.75;9.60;;;-2.60;99.90;;;;;;5028885;28;20014;-96
2022/03/08 01:52:44;;;;;;;17.45;9.13;;;-2.50;99.90;;;;;;5028792;28;20085;-95
2022/03/08 01:55:12;;;;;;;16.17;10.18;;;-3.00;99.90;;;;;;5028801;28;20065;-95
2022/03/08 01:57:38;;;;;;;17.80;9.23;;;-2.40;99.90;;;;;;5028716;28;20029;-95
2022/03/08 02:00:10;;;;;;;17.77;9.43;;;-1.90;99.90;;;;;;5028950;28;20045;-94
2022/03/08 02:02:35;;;;;;;20.05;10.48;;;-2.20;99.90;;;;;;5028303;28;20033;-96
2022/03/08 02:05:01;;;;;;;19.73;9.88;;;-2.40;99.90;;;;;;5028680;28;20081;-95
2022/03/08 02:07:27;;;;;;;19.02;9.98;;;-2.50;99.90;;;;;;5028637;28;20014;-95
2022/03/08 02:09:52;;;;;;;19.05;10.38;;;-2.50;99.90;;;;;;5028616;28;20013;-96
2022/03/08 02:12:18;;;;;;;17.42;9.93;;;-2.10;99.90;;;;;;5028616;28;20020;-95
2022/03/08 02:14:44;;;;;;;19.23;9.68;;;-2.40;99.90;;;;;;5028536;28;20085;-96
2022/03/08 02:17:10;;;;;;;19.85;10.02;;;-2.40;99.90;;;;;;5028247;28;20017;-95
2022/03/08 02:19:35;;;;;;;16.92;9.15;;;-2.50;99.90;;;;;;5028322;28;20021;-95
2022/03/08 02:22:01;;;;;;;18.80;9.52;;;-2.40;99.90;;;;;;5027870;28;20045;-95
2022/03/08 02:24:27;;;;;;;19.25;10.55;;;-2.40;99.90;;;;;;5028288;28;20013;-95
2022/03/08 02:26:54;;;;;;;20.25;10.15;;;-2.50;99.90;;;;;;5028240;28;20071;-95
2022/03/08 02:29:19;;;;;;;21.33;10.65;;;-2.60;99.90;;;;;;5027466;28;20017;-95
2022/03/08 02:31:47;;;;;;;18.33;10.40;;;-2.20;99.90;;;;;;5028098;28;20060;-96
2022/03/08 02:34:14;;;;;;;23.15;11.15;;;-2.50;99.90;;;;;;5028029;28;20108;-96
2022/03/08 02:36:41;;;;;;;20.27;10.43;;;-2.60;99.90;;;;;;5028081;28;20025;-95
2022/03/08 02:39:07;;;;;;;24.48;11.48;;;-2.70;99.90;;;;;;5028027;28;20029;-96
